This is the latest recevied weather packets stored in our database for station/object K7YVO. If no packets are shown the sender has not sent any weather packets the latest 10 day(s).
| Time | Temp. | Humidity | Pressure | Rain* | Wind** | Luminosity | Snow |
|---|---|---|---|---|---|---|---|
| 1777957397 | 17.78° C | 76% | 1014.6 hPa | 0 mm | - | 0 W/m² | - |
| 1777957092 | 17.78° C | 76% | 1014.4 hPa | 0 mm | - | 0 W/m² | - |
| 1777956790 | 17.78° C | 76% | 1014.2 hPa | 0 mm | - | 0 W/m² | - |
| 1777956486 | 17.78° C | 76% | 1014 hPa | 0 mm | - | 0 W/m² | - |
| 1777956183 | 17.78° C | 75% | 1013.9 hPa | 0 mm | - | 0 W/m² | - |
| 1777955879 | 18.33° C | 75% | 1014.1 hPa | 0 mm | - | 0 W/m² | - |
| 1777955576 | 18.33° C | 74% | 1014.1 hPa | 0 mm | - | 0 W/m² | - |
| 1777955272 | 18.33° C | 74% | 1014 hPa | 0 mm | - | 0 W/m² | - |
| 1777954969 | 18.33° C | 74% | 1013.9 hPa | 0 mm | - | 0 W/m² | - |
| 1777954666 | 18.89° C | 74% | 1013.9 hPa | 0 mm | - | 0 W/m² | - |
| 1777954363 | 18.89° C | 73% | 1013.8 hPa | 0 mm | - | 0 W/m² | - |
| 1777954060 | 18.89° C | 73% | 1013.7 hPa | 0 mm | - | 0 W/m² | - |
| 1777953758 | 18.89° C | 74% | 1013.6 hPa | 0 mm | - | 0 W/m² | - |
| 1777953455 | 18.33° C | 74% | 1013.6 hPa | 0 mm | - | 0 W/m² | - |
| 1777943754 | 23.33° C | 57% | 1013.3 hPa | 0 mm | - | 130 W/m² | - |
| 1777943452 | 23.33° C | 56% | 1013.1 hPa | 0 mm | - | 202 W/m² | - |
| 1777943147 | 22.78° C | 57% | 1013.3 hPa | 0 mm | - | 211 W/m² | - |
| 1777942844 | 22.78° C | 58% | 1013 hPa | 0 mm | - | 187 W/m² | - |
| 1777942540 | 23.33° C | 57% | 1013.2 hPa | 0 mm | - | 217 W/m² | - |
| 1777942238 | 22.78° C | 57% | 1013.1 hPa | 0 mm | - | 260 W/m² | - |
| 1777941632 | 23.89° C | 55% | 1013.1 hPa | 0 mm | - | 285 W/m² | - |
| 1777940721 | 25° C | 52% | 1013.5 hPa | 0 mm | - | 332 W/m² | - |
| 1777940117 | 23.89° C | 55% | 1013.2 hPa | 0 mm | - | 361 W/m² | - |
| 1777939512 | 23.33° C | 57% | 1013.5 hPa | 0 mm | - | 389 W/m² | - |
| 1777937086 | 22.22° C | 57% | 1013.5 hPa | 0 mm | - | 494 W/m² | - |
* Rain latest hour (hover to see other rain measurements)
** Current wind speed in m/s (hover to see current wind gust speed)